Aeroporto :
LOGIN :

Iscrizione | Disclaimer

   EN    FR    IT 

 










Sommario :    VFR   VFR Marginale   IFR   IFR Intensivo   IFR Molto Intensivo
Visibilità : 
Base nubi : 
>= 8 km
>= 3000ft
5 / 8 km
1000 / 3000 ft
1500m / 5 km
500 / 1000 ft
800 / 1500m
200 / 500 ft
< 800m
< 200 ft
Simboli :   Temporali  Nebbia  Neve Forte  Precipitazioni Forti  Vento > 20 kt
SIGMETs :   Varie  Temporali  Ghiacco  Turbolenza  Onda orograficha  Ceneri Vulcaniche







- Altitudine del aeroporto : 266 ft
- Codice IATA : NCL
- Carte del aeroporto


EGNT - Newcastle

ULTIMO METAR :
  • 191350Z 09007KT 070V140 CAVOK 18/09 Q1031

METARs OBSOLETI :
  • 191320Z 10006KT 070V160 CAVOK 19/08 Q1031
  • 191250Z 11005KT 070V160 CAVOK 19/08 Q1031
  • 191220Z 11005KT 070V150 CAVOK 18/09 Q1032
  • 191150Z 11004KT 060V170 CAVOK 17/10 Q1032
  • 191120Z VRB03KT CAVOK 17/11 Q1032

TAF TAF EGNT
Valido dal 19 a 12 ore il 20 a 12 ore UTC


191059Z 1912/2012 09005KT 9999 FEW030
PROB40
TEMPO 1921/1924 8000
PROB30 2000/2009 0300 FG VV///
PROB40
TEMPO 2009/2012 8000
ATIS : +44 191 214 3400
Nessun NOTAM noto per questo aeroporto.



MetMap, La meteo Aeronautica in un colpo d'occhio ! - Copyright ORBIFLY Dicembre 2007 - Disclaimer

ORBIFLY MET'MAP TEAM :

Programmazione e sviluppo : Alexandra Zaïnal
Concezione e sviluppo : Baudouin d'Aumeries
Co-Programmazione e sviluppo : Marc-Olivier Méhu
Supporto tecnico e logistico : Manuel Goepfert
Aiuto per la traduzione : Arnaldo La Scala

Contatto : metmap@orbifly.com




FONTI E CREDITI :

   NOAA